Time;durP1;ratioP1;P1;durP2;ratioP2;P2;SDS_P1;SDS_P2;PMS_P1;PMS_P2;Temp;Humidity;BMP_temperature;BMP_pressure;BME280_temperature;BME280_humidity;BME280_pressure;Samples;Min_cycle;Max_cycle;Signal;HPM_P1;HPM_P2
2022/01/19 00:01:47;;;;;;;;;;;;;;;11.52;71.27;102174.16;7391477;19;19930;-60
2022/01/19 00:04:12;;;;;;;;;;;;;;;11.52;71.60;102155.84;7394906;19;19926;-62
2022/01/19 00:06:37;;;;;;;;;;;;;;;11.52;71.31;102162.81;7393643;19;19922;-62
2022/01/19 00:09:03;;;;;;;;;;;;;;;11.51;71.20;102159.34;7393834;19;19910;-62
2022/01/19 00:11:28;;;;;;;;;;;;;;;11.50;71.66;102162.81;7391666;19;19986;-62
2022/01/19 00:13:55;;;;;;;;;;;;;;;11.50;71.36;102160.19;7393814;19;19911;-62
2022/01/19 00:16:20;;;;;;;;;;;;;;;11.51;71.29;102164.56;7388851;19;19919;-63
2022/01/19 00:18:46;;;;;;;;;;;;;;;11.50;71.40;102141.88;7392043;19;19915;-62
2022/01/19 00:21:12;;;;;;;;;;;;;;;11.50;71.49;102144.50;7392919;19;19944;-62
2022/01/19 00:23:37;;;;;;;;;;;;;;;11.51;71.53;102120.09;7394798;19;20289;-62
2022/01/19 00:26:02;;;;;;;;;;;;;;;11.50;71.84;102107.88;7393885;19;19947;-62
2022/01/19 00:28:27;;;;;;;;;;;;;;;11.51;71.78;102099.16;7395530;19;20025;-62
2022/01/19 00:30:53;;;;;;;;;;;;;;;11.52;71.71;102103.53;7390954;19;19918;-62
2022/01/19 00:33:19;;;;;;;;;;;;;;;11.52;71.63;102093.06;7390609;19;19931;-62
2022/01/19 00:35:44;;;;;;;;;;;;;;;11.51;71.71;102091.31;7392268;19;19915;-62
2022/01/19 00:38:10;;;;;;;;;;;;;;;11.49;71.71;102102.66;7391838;19;19926;-62
2022/01/19 00:40:36;;;;;;;;;;;;;;;11.48;71.81;102096.56;7392531;19;20469;-62
2022/01/19 00:43:02;;;;;;;;;;;;;;;11.47;71.53;102099.19;7393941;19;19994;-62
2022/01/19 00:45:27;;;;;;;;;;;;;;;11.45;71.85;102101.78;7399587;19;20009;-62
2022/01/19 00:47:52;;;;;;;;;;;;;;;11.44;71.64;102100.06;7395272;19;19918;-63
2022/01/19 00:50:22;;;;;;;;;;;;;;;11.42;71.83;102112.28;7393471;19;20336;-62
2022/01/19 00:52:49;;;;;;;;;;;;;;;11.43;71.66;102106.16;7385454;19;19919;-62
2022/01/19 00:55:14;;;;;;;;;;;;;;;11.43;72.05;102099.19;7390045;19;21243;-62
2022/01/19 00:57:40;;;;;;;;;;;;;;;11.43;72.18;102085.25;7388504;19;19915;-61
2022/01/19 01:00:07;;;;;;;;;;;;;;;11.44;72.19;102068.66;7393148;19;19923;-62
2022/01/19 01:02:33;;;;;;;;;;;;;;;11.43;72.02;102053.84;7369275;19;20649;-62
2022/01/19 01:04:58;;;;;;;;;;;;;;;11.42;71.79;102059.97;7366787;19;19930;-61
2022/01/19 01:07:23;;;;;;;;;;;;;;;11.42;72.10;102044.28;7360404;19;19923;-62
2022/01/19 01:09:49;;;;;;;;;;;;;;;11.40;71.97;102032.94;7361512;19;19922;-62
2022/01/19 01:12:21;;;;;;;;;;;;;;;11.40;72.11;102019.84;7359630;19;19931;-62
2022/01/19 01:20:15;;;;;;;;;;;;;;;11.35;71.95;101985.91;7356885;19;19956;-62
2022/01/19 01:22:41;;;;;;;;;;;;;;;11.33;72.07;102002.47;7296852;19;19922;-62
2022/01/19 01:25:07;;;;;;;;;;;;;;;11.32;72.12;102011.19;7357736;19;19939;-63
2022/01/19 01:27:32;;;;;;;;;;;;;;;11.30;72.16;102008.56;7308568;19;19919;-62
2022/01/19 01:29:58;;;;;;;;;;;;;;;11.29;72.41;102016.44;7367312;19;19939;-62
2022/01/19 01:32:23;;;;;;;;;;;;;;;11.27;72.43;102031.28;7362654;19;19972;-62
2022/01/19 01:34:49;;;;;;;;;;;;;;;11.26;72.19;102017.31;7363156;19;20244;-62
2022/01/19 01:37:39;;;;;;;;;;;;;;;11.25;72.59;102020.78;7364280;19;19930;-62
2022/01/19 01:40:05;;;;;;;;;;;;;;;11.24;72.21;102046.97;7254029;19;2004387;-62
2022/01/19 01:42:33;;;;;;;;;;;;;;;11.22;72.47;102046.09;7364506;19;19942;-62
2022/01/19 01:45:01;;;;;;;;;;;;;;;11.20;72.86;102038.25;7364433;19;19956;-62
2022/01/19 01:47:27;;;;;;;;;;;;;;;11.20;72.81;102032.16;7372695;19;19934;-62
2022/01/19 01:55:07;;;;;;;;;;;;;;;11.18;72.84;102025.19;7364515;19;20802;-62
2022/01/19 01:57:33;;;;;;;;;;;;;;;11.19;72.95;102020.81;7364993;19;19923;-61
2022/01/19 02:00:00;;;;;;;;;;;;;;;11.21;73.07;102028.69;7360579;19;19930;-62
2022/01/19 02:02:25;;;;;;;;;;;;;;;11.22;73.10;102025.19;7362631;19;19918;-61
2022/01/19 02:04:53;;;;;;;;;;;;;;;11.23;73.25;102026.91;7365131;19;19922;-62
2022/01/19 02:09:51;;;;;;;;;;;;;;;11.26;72.72;102027.78;7363689;19;19939;-62
2022/01/19 02:25:45;;;;;;;;;;;;;;;11.31;73.10;102028.63;7359531;19;19943;-62
2022/01/19 02:36:54;;;;;;;;;;;;;;;11.32;72.68;102003.34;7364451;19;19960;-62
2022/01/19 02:41:38;;;;;;;;;;;;;;;11.30;72.96;102003.34;7359321;19;19921;-62
2022/01/19 02:44:03;;;;;;;;;;;;;;;11.29;72.84;101992.91;7362531;19;19926;-62
2022/01/19 02:49:16;;;;;;;;;;;;;;;11.26;72.62;101985.09;7360522;19;19955;-62
2022/01/19 02:51:46;;;;;;;;;;;;;;;11.26;72.70;101975.50;7358360;19;20026;-62
2022/01/19 02:54:12;;;;;;;;;;;;;;;11.25;73.03;101988.53;7358638;19;19925;-62
2022/01/19 02:56:48;;;;;;;;;;;;;;;11.26;73.20;101987.69;4587743;19;10001176;-62
2022/01/19 02:59:18;;;;;;;;;;;;;;;11.26;73.16;101969.41;4718338;19;10001764;-62
2022/01/19 03:09:46;;;;;;;;;;;;;;;11.28;73.23;101944.09;7363235;19;19914;-62
2022/01/19 03:12:11;;;;;;;;;;;;;;;11.29;73.12;101945.81;7364731;19;20013;-62
2022/01/19 03:14:37;;;;;;;;;;;;;;;11.30;73.10;101935.34;7361753;19;20259;-62
2022/01/19 03:17:03;;;;;;;;;;;;;;;11.31;73.29;101931.00;7363761;19;20799;-62
2022/01/19 03:19:30;;;;;;;;;;;;;;;11.31;73.46;101937.09;7362858;19;20412;-62
2022/01/19 03:21:56;;;;;;;;;;;;;;;11.32;73.30;101927.50;7361581;19;19919;-61
2022/01/19 03:24:21;;;;;;;;;;;;;;;11.35;73.29;101927.47;7364639;19;19913;-62
2022/01/19 03:26:46;;;;;;;;;;;;;;;11.36;73.23;101908.31;7360261;19;19927;-62
2022/01/19 03:29:12;;;;;;;;;;;;;;;11.36;73.57;101908.31;7371397;19;19990;-62
2022/01/19 03:31:37;;;;;;;;;;;;;;;11.37;73.11;101907.44;7370441;19;19983;-62
2022/01/19 03:34:03;;;;;;;;;;;;;;;11.38;73.15;101909.16;7362118;19;19930;-62
2022/01/19 03:36:30;;;;;;;;;;;;;;;11.37;73.45;101904.81;7361771;19;19914;-62
2022/01/19 03:38:58;;;;;;;;;;;;;;;11.37;73.29;101910.91;7363703;19;20288;-62
2022/01/19 03:41:23;;;;;;;;;;;;;;;11.38;73.24;101914.38;7357642;19;19911;-62
2022/01/19 03:43:49;;;;;;;;;;;;;;;11.39;73.47;101908.28;7361587;19;19979;-63
2022/01/19 03:46:32;;;;;;;;;;;;;;;11.40;73.52;101912.63;7354400;19;19911;-62
2022/01/19 03:49:08;;;;;;;;;;;;;;;11.40;73.53;101921.38;7362475;19;19923;-62
2022/01/19 03:51:33;;;;;;;;;;;;;;;11.40;73.17;101923.09;7359399;19;19911;-62
2022/01/19 03:53:58;;;;;;;;;;;;;;;11.40;73.01;101915.22;7365064;19;19910;-62
2022/01/19 03:56:24;;;;;;;;;;;;;;;11.39;73.22;101911.75;7363666;19;19950;-61
2022/01/19 03:58:49;;;;;;;;;;;;;;;11.38;73.37;101906.53;7361352;19;19915;-62
2022/01/19 04:01:17;;;;;;;;;;;;;;;11.37;73.31;101910.03;7369325;19;20642;-63
2022/01/19 04:06:24;;;;;;;;;;;;;;;11.34;73.27;101910.06;7342762;19;19927;-63
2022/01/19 04:08:53;;;;;;;;;;;;;;;11.34;73.34;101915.28;7362647;19;19935;-62
2022/01/19 04:11:20;;;;;;;;;;;;;;;11.34;73.09;101925.75;7357890;19;19930;-62
2022/01/19 04:16:29;;;;;;;;;;;;;;;11.33;73.58;101917.03;7361634;19;19934;-62
2022/01/19 04:19:08;;;;;;;;;;;;;;;11.34;73.56;101923.13;7350949;19;19911;-62
2022/01/19 04:21:33;;;;;;;;;;;;;;;11.33;73.73;101929.25;7363643;19;19983;-62
2022/01/19 04:23:59;;;;;;;;;;;;;;;11.34;73.28;101931.84;7366212;19;19943;-62
2022/01/19 04:26:25;;;;;;;;;;;;;;;11.35;73.35;101932.69;7366632;19;20320;-62
2022/01/19 04:28:50;;;;;;;;;;;;;;;11.36;73.49;101940.56;7363840;19;19925;-62
2022/01/19 04:31:20;;;;;;;;;;;;;;;11.37;73.49;101936.19;7365281;19;19923;-62
2022/01/19 04:33:46;;;;;;;;;;;;;;;11.40;73.25;101931.81;7365209;19;19944;-62
2022/01/19 05:06:07;;;;;;;;;;;;;;;11.39;73.02;101944.88;7367392;19;19923;-62
2022/01/19 05:13:56;;;;;;;;;;;;;;;11.40;72.80;101942.28;7365340;19;19939;-62
2022/01/19 05:16:24;;;;;;;;;;;;;;;11.41;72.79;101949.25;7371634;19;20273;-62
2022/01/19 05:18:50;;;;;;;;;;;;;;;11.41;72.83;101953.63;7369794;19;19915;-62
2022/01/19 05:21:16;;;;;;;;;;;;;;;11.43;73.07;101957.06;7369507;19;19980;-62
2022/01/19 05:23:44;;;;;;;;;;;;;;;11.43;72.99;101972.78;7371889;19;19943;-62
2022/01/19 05:26:09;;;;;;;;;;;;;;;11.44;72.89;101959.69;7369623;19;19954;-62
2022/01/19 05:28:37;;;;;;;;;;;;;;;11.45;73.03;101957.94;7370520;19;19959;-62
2022/01/19 05:31:04;;;;;;;;;;;;;;;11.47;73.08;101953.56;7370587;19;20337;-62
2022/01/19 05:33:32;;;;;;;;;;;;;;;11.47;72.80;101957.94;7368915;19;19931;-62
2022/01/19 05:35:57;;;;;;;;;;;;;;;11.49;72.96;101951.81;7367585;19;20801;-62
2022/01/19 05:38:25;;;;;;;;;;;;;;;11.49;73.05;101954.41;7368229;19;19931;-62
2022/01/19 05:40:52;;;;;;;;;;;;;;;11.51;72.66;101946.59;7370168;19;19918;-60
2022/01/19 05:43:18;;;;;;;;;;;;;;;11.51;72.53;101944.84;7368135;19;19927;-62
2022/01/19 05:45:43;;;;;;;;;;;;;;;11.51;72.66;101936.13;7370454;19;19948;-62
2022/01/19 05:48:08;;;;;;;;;;;;;;;11.50;72.71;101943.06;7367575;19;19933;-62
2022/01/19 05:50:36;;;;;;;;;;;;;;;11.49;72.75;101943.94;7369570;19;20338;-62
2022/01/19 05:53:01;;;;;;;;;;;;;;;11.46;72.58;101949.22;7367251;19;19930;-62
2022/01/19 05:55:26;;;;;;;;;;;;;;;11.43;72.22;101952.72;7370102;19;19922;-62
2022/01/19 05:57:52;;;;;;;;;;;;;;;11.41;72.57;101949.25;7369058;19;19925;-62
2022/01/19 06:00:20;;;;;;;;;;;;;;;11.40;72.47;101957.09;7368052;19;20358;-62
2022/01/19 06:02:45;;;;;;;;;;;;;;;11.38;72.64;101958.84;7369201;19;20004;-62
2022/01/19 06:05:10;;;;;;;;;;;;;;;11.36;72.52;101960.63;7366104;19;20324;-62
2022/01/19 06:07:46;;;;;;;;;;;;;;;11.35;72.34;101964.09;7369320;19;20292;-62
2022/01/19 06:12:58;;;;;;;;;;;;;;;11.32;72.27;101964.13;7369781;19;19918;-63
2022/01/19 06:15:23;;;;;;;;;;;;;;;11.30;72.47;101989.41;7360954;19;20266;-62
2022/01/19 06:17:49;;;;;;;;;;;;;;;11.28;72.68;101983.31;7368612;19;19919;-62
2022/01/19 06:20:14;;;;;;;;;;;;;;;11.25;72.53;101985.94;7369045;19;20346;-62
2022/01/19 06:22:39;;;;;;;;;;;;;;;11.22;72.40;101988.59;7362970;19;19919;-62
2022/01/19 06:25:05;;;;;;;;;;;;;;;11.17;72.30;101981.63;7369682;19;19928;-62
2022/01/19 06:27:30;;;;;;;;;;;;;;;11.11;72.28;101996.47;7367678;19;19925;-62
2022/01/19 06:29:55;;;;;;;;;;;;;;;11.06;72.02;101986.03;7363951;19;19986;-62
2022/01/19 06:32:23;;;;;;;;;;;;;;;11.02;71.90;102004.34;7369034;19;19936;-62
2022/01/19 06:34:49;;;;;;;;;;;;;;;10.96;72.09;102009.59;7364458;19;19919;-62
2022/01/19 06:37:14;;;;;;;;;;;;;;;10.91;72.14;102012.22;7367735;19;19932;-62
2022/01/19 06:39:42;;;;;;;;;;;;;;;10.86;72.15;102025.31;7358702;19;20246;-62
2022/01/19 06:42:07;;;;;;;;;;;;;;;10.81;72.27;102019.22;7366845;19;19953;-62
2022/01/19 06:44:38;;;;;;;;;;;;;;;10.76;71.81;102022.72;7364007;19;19919;-62
2022/01/19 06:47:03;;;;;;;;;;;;;;;10.71;71.96;102027.09;7366732;19;19923;-62
2022/01/19 06:49:28;;;;;;;;;;;;;;;10.65;72.03;102018.38;7367384;19;19938;-63
2022/01/19 06:51:59;;;;;;;;;;;;;;;10.56;71.50;102018.41;5855840;19;10000610;-61
2022/01/19 06:54:25;;;;;;;;;;;;;;;10.53;71.79;102036.69;2740423;19;10001757;-61
2022/01/19 06:56:50;;;;;;;;;;;;;;;10.45;71.41;102030.63;7371959;19;19937;-63
2022/01/19 06:59:15;;;;;;;;;;;;;;;10.36;71.31;102046.28;7367439;19;19915;-62
2022/01/19 07:01:41;;;;;;;;;;;;;;;10.27;71.28;102056.72;7368720;19;19954;-62
2022/01/19 07:04:06;;;;;;;;;;;;;;;10.17;71.07;102065.38;7363157;19;20020;-62
2022/01/19 07:06:32;;;;;;;;;;;;;;;10.07;71.04;102073.19;7368315;19;19915;-62
2022/01/19 07:08:57;;;;;;;;;;;;;;;9.98;71.01;102069.69;7363910;19;19923;-62
2022/01/19 07:11:22;;;;;;;;;;;;;;;9.87;71.27;102073.16;7363182;19;20340;-62
2022/01/19 07:13:48;;;;;;;;;;;;;;;9.77;71.21;102075.75;7360675;19;19915;-62
2022/01/19 07:16:13;;;;;;;;;;;;;;;9.69;71.43;102080.09;7363615;19;20492;-62
2022/01/19 07:18:40;;;;;;;;;;;;;;;9.60;71.31;102073.97;7364227;19;19929;-62
2022/01/19 07:21:06;;;;;;;;;;;;;;;9.50;71.45;102072.19;7362827;19;19921;-62
2022/01/19 07:23:31;;;;;;;;;;;;;;;9.42;71.34;102079.09;7362318;19;19919;-62
2022/01/19 07:25:56;;;;;;;;;;;;;;;9.34;71.04;102081.69;7366476;19;19926;-62
2022/01/19 07:28:22;;;;;;;;;;;;;;;9.29;71.20;102100.78;7358303;19;19923;-62
2022/01/19 07:30:48;;;;;;;;;;;;;;;9.24;71.58;102102.50;7359805;19;20688;-62
2022/01/19 07:33:14;;;;;;;;;;;;;;;9.19;71.64;102105.06;7362469;19;19938;-62
2022/01/19 07:35:39;;;;;;;;;;;;;;;9.15;71.57;102110.25;7365126;19;19930;-61
2022/01/19 07:38:04;;;;;;;;;;;;;;;9.11;71.38;102111.97;7365133;19;20941;-61
2022/01/19 07:40:30;;;;;;;;;;;;;;;9.07;71.56;102128.44;7367448;19;19919;-62
2022/01/19 07:42:55;;;;;;;;;;;;;;;9.03;71.69;102132.78;7364691;19;19958;-62
2022/01/19 07:45:20;;;;;;;;;;;;;;;8.98;71.63;102125.78;7362771;19;19914;-61
2022/01/19 07:47:48;;;;;;;;;;;;;;;8.94;71.62;102127.50;7366720;19;19914;-62
2022/01/19 07:50:13;;;;;;;;;;;;;;;8.90;71.18;102123.13;7368264;19;19911;-61
2022/01/19 07:52:39;;;;;;;;;;;;;;;8.84;71.35;102123.09;7365385;19;19924;-62
2022/01/19 07:55:04;;;;;;;;;;;;;;;8.78;71.25;102128.25;7360985;19;19914;-62
2022/01/19 07:57:30;;;;;;;;;;;;;;;8.74;71.08;102129.09;7366113;19;19944;-62
2022/01/19 07:59:55;;;;;;;;;;;;;;;8.70;71.08;102127.31;7362724;19;19943;-62
2022/01/19 08:02:20;;;;;;;;;;;;;;;8.65;71.48;102135.06;7353002;19;20003;-62
2022/01/19 08:04:45;;;;;;;;;;;;;;;8.61;71.13;102129.84;7360775;19;20455;-62
2022/01/19 08:07:11;;;;;;;;;;;;;;;8.55;71.34;102138.47;7360717;19;19918;-62
2022/01/19 08:09:37;;;;;;;;;;;;;;;8.48;71.45;102153.16;7363747;19;20025;-62
2022/01/19 08:12:03;;;;;;;;;;;;;;;8.44;71.60;102169.63;7362272;19;19934;-62
2022/01/19 08:14:29;;;;;;;;;;;;;;;8.39;71.28;102186.91;7359155;19;20565;-62
2022/01/19 08:16:55;;;;;;;;;;;;;;;8.36;71.61;102186.88;7369426;19;19915;-62
2022/01/19 08:19:30;;;;;;;;;;;;;;;8.32;71.66;102178.16;7363638;19;19943;-62
2022/01/19 08:21:55;;;;;;;;;;;;;;;8.29;71.55;102187.66;7369188;19;19919;-61
2022/01/19 08:24:22;;;;;;;;;;;;;;;8.27;71.55;102200.66;7368461;19;19949;-62
2022/01/19 08:26:48;;;;;;;;;;;;;;;8.29;71.81;102205.88;7366562;19;19911;-62
2022/01/19 08:29:13;;;;;;;;;;;;;;;8.29;72.02;102204.13;7369999;19;19914;-62
2022/01/19 08:31:39;;;;;;;;;;;;;;;8.31;72.28;102206.75;7361526;19;19915;-61
2022/01/19 08:34:04;;;;;;;;;;;;;;;8.36;71.85;102220.72;7368949;19;19972;-62
2022/01/19 08:36:32;;;;;;;;;;;;;;;8.39;72.13;102231.16;7369850;19;19935;-62
2022/01/19 08:38:57;;;;;;;;;;;;;;;8.42;72.00;102231.22;7380149;19;19914;-62
2022/01/19 08:41:23;;;;;;;;;;;;;;;8.44;71.90;102223.41;7373521;19;19927;-62
2022/01/19 08:43:48;;;;;;;;;;;;;;;8.45;71.63;102233.84;7360923;19;19922;-62
2022/01/19 08:46:14;;;;;;;;;;;;;;;8.45;72.03;102231.22;7361972;19;19923;-61
2022/01/19 08:48:39;;;;;;;;;;;;;;;8.45;71.63;102239.03;7364271;19;19982;-61
2022/01/19 08:51:04;;;;;;;;;;;;;;;8.45;71.68;102262.47;7368349;19;19982;-62
2022/01/19 08:53:30;;;;;;;;;;;;;;;8.47;72.10;102265.97;7364043;19;20350;-62
2022/01/19 08:56:10;;;;;;;;;;;;;;;8.48;71.92;102283.34;4107443;19;10001429;-62
2022/01/19 08:58:35;;;;;;;;;;;;;;;8.55;72.07;102284.28;5030436;19;10001093;-63
2022/01/19 09:01:00;;;;;;;;;;;;;;;8.60;71.88;102286.94;7363686;19;19931;-62
2022/01/19 09:03:28;;;;;;;;;;;;;;;8.64;72.05;102293.94;7368619;19;19929;-62
2022/01/19 09:05:53;;;;;;;;;;;;;;;8.69;72.05;102308.75;7361460;19;19944;-62
2022/01/19 09:08:21;;;;;;;;;;;;;;;8.74;71.77;102300.97;7366475;19;19926;-61
2022/01/19 09:10:50;;;;;;;;;;;;;;;8.78;72.29;102308.84;7357283;19;19923;-62
2022/01/19 09:13:15;;;;;;;;;;;;;;;8.84;72.34;102318.44;7369248;19;20322;-62
2022/01/19 09:15:40;;;;;;;;;;;;;;;8.89;72.00;102321.09;7363211;19;19939;-62
2022/01/19 09:18:09;;;;;;;;;;;;;;;8.94;71.67;102327.25;7361484;19;19943;-62
2022/01/19 09:20:34;;;;;;;;;;;;;;;8.98;71.89;102326.41;7368456;19;19986;-62
2022/01/19 09:22:59;;;;;;;;;;;;;;;9.00;71.95;102330.75;7368169;19;20386;-62
2022/01/19 09:25:25;;;;;;;;;;;;;;;9.05;71.65;102334.28;7377425;19;19925;-62
2022/01/19 09:27:53;;;;;;;;;;;;;;;9.08;71.47;102329.13;7372083;19;19998;-62
2022/01/19 09:30:24;;;;;;;;;;;;;;;9.10;71.06;102335.22;7375616;19;19942;-62
2022/01/19 09:33:05;;;;;;;;;;;;;;;9.12;70.95;102336.94;7376440;19;19935;-61
2022/01/19 09:35:39;;;;;;;;;;;;;;;9.12;70.96;102339.56;7375401;19;19978;-62
2022/01/19 09:38:06;;;;;;;;;;;;;;;9.10;70.83;102348.25;7362929;19;19919;-62
2022/01/19 09:40:32;;;;;;;;;;;;;;;9.10;70.54;102353.44;7366502;19;20011;-61
2022/01/19 09:42:59;;;;;;;;;;;;;;;9.14;71.17;102348.28;7359685;19;19918;-62
2022/01/19 09:45:24;;;;;;;;;;;;;;;9.27;71.61;102344.91;7368685;19;19919;-62
2022/01/19 09:47:52;;;;;;;;;;;;;;;9.45;71.51;102352.91;7367085;19;20024;-62
2022/01/19 09:50:17;;;;;;;;;;;;;;;9.69;71.58;102343.53;7358635;19;19927;-62
2022/01/19 09:52:43;;;;;;;;;;;;;;;9.93;71.78;102356.72;7359440;19;19927;-62
2022/01/19 09:55:08;;;;;;;;;;;;;;;10.17;71.78;102360.34;7364069;19;19934;-62
2022/01/19 09:57:35;;;;;;;;;;;;;;;10.39;71.71;102372.69;7367456;19;19944;-62
2022/01/19 10:00:01;;;;;;;;;;;;;;;10.61;71.54;102361.47;7356284;19;19919;-63
2022/01/19 10:02:26;;;;;;;;;;;;;;;10.84;71.37;102368.50;7373576;19;19927;-62
2022/01/19 10:04:51;;;;;;;;;;;;;;;11.07;70.71;102365.97;7366628;19;19948;-62
2022/01/19 10:07:24;;;;;;;;;;;;;;;11.29;70.74;102366.84;7363035;19;19926;-62
2022/01/19 10:09:49;;;;;;;;;;;;;;;11.51;70.46;102363.41;7365045;19;20029;-62
2022/01/19 10:18:07;;;;;;;;;;;;;;;12.20;70.26;102377.28;7373954;19;19922;-63
2022/01/19 10:20:32;;;;;;;;;;;;;;;12.44;70.41;102380.72;7365716;19;19918;-62
2022/01/19 10:22:57;;;;;;;;;;;;;;;12.66;69.81;102382.34;7362158;19;19936;-63
2022/01/19 10:25:23;;;;;;;;;;;;;;;12.84;68.89;102376.16;7366845;19;19919;-63
2022/01/19 10:27:48;;;;;;;;;;;;;;;13.00;68.91;102390.06;7366347;19;20324;-62
2022/01/19 10:30:18;;;;;;;;;;;;;;;13.17;69.04;102372.44;7357520;19;19911;-63
2022/01/19 10:32:48;;;;;;;;;;;;;;;13.37;68.55;102382.84;7364233;19;19914;-63
2022/01/19 10:35:18;;;;;;;;;;;;;;;13.59;68.31;102396.69;7362272;19;20271;-63
2022/01/19 10:37:44;;;;;;;;;;;;;;;13.82;68.72;102406.13;7359545;19;19949;-62
2022/01/19 10:40:19;;;;;;;;;;;;;;;14.01;67.90;102405.06;7356269;19;19931;-62
2022/01/19 10:42:46;;;;;;;;;;;;;;;14.21;67.53;102415.38;7363602;19;19919;-62
2022/01/19 10:45:12;;;;;;;;;;;;;;;14.41;67.51;102421.28;7363563;19;19919;-62
2022/01/19 10:47:37;;;;;;;;;;;;;;;14.61;67.14;102404.44;7353262;19;20009;-62
2022/01/19 10:50:02;;;;;;;;;;;;;;;14.82;67.45;102395.41;7365327;19;19915;-63
2022/01/19 10:52:36;;;;;;;;;;;;;;;15.01;67.21;102404.81;7365138;19;19915;-62
2022/01/19 10:55:19;;;;;;;;;;;;;;;15.21;66.52;102397.50;2973923;19;10021989;-62
2022/01/19 10:57:44;;;;;;;;;;;;;;;15.41;66.39;102406.81;6044048;19;10001064;-63
2022/01/19 11:00:11;;;;;;;;;;;;;;;15.58;66.59;102412.72;7361191;19;19936;-63
2022/01/19 11:02:37;;;;;;;;;;;;;;;15.73;66.09;102423.03;7363951;19;19936;-63
2022/01/19 11:05:02;;;;;;;;;;;;;;;15.88;65.54;102426.31;7360204;19;19933;-63
2022/01/19 11:07:28;;;;;;;;;;;;;;;16.01;65.31;102433.94;7358622;19;19968;-63
2022/01/19 11:09:57;;;;;;;;;;;;;;;16.17;64.87;102445.09;7377377;19;19933;-63
2022/01/19 11:12:26;;;;;;;;;;;;;;;16.30;65.07;102430.78;7365721;19;19943;-63
2022/01/19 11:14:51;;;;;;;;;;;;;;;16.39;64.54;102423.59;7373212;19;19929;-63
2022/01/19 11:17:17;;;;;;;;;;;;;;;16.41;64.19;102427.06;7363710;19;19974;-63
2022/01/19 11:19:45;;;;;;;;;;;;;;;16.34;63.97;102427.19;7364920;19;19926;-62
2022/01/19 11:22:23;;;;;;;;;;;;;;;16.31;63.75;102432.50;7364962;19;19951;-63
2022/01/19 11:25:07;;;;;;;;;;;;;;;16.35;63.74;102435.97;7365195;19;19922;-63
2022/01/19 11:27:35;;;;;;;;;;;;;;;16.45;64.14;102449.84;7357680;19;19932;-63
2022/01/19 11:30:21;;;;;;;;;;;;;;;16.55;63.19;102451.41;7358722;19;19944;-63
2022/01/19 11:33:05;;;;;;;;;;;;;;;16.72;63.40;102453.72;7360166;19;20026;-63
2022/01/19 11:35:31;;;;;;;;;;;;;;;16.88;63.43;102464.84;7361209;19;19948;-63
2022/01/19 11:37:57;;;;;;;;;;;;;;;17.01;62.99;102467.19;7365676;19;19932;-63
2022/01/19 11:40:32;;;;;;;;;;;;;;;17.16;62.99;102471.28;7360049;19;20498;-63
2022/01/19 11:43:36;;;;;;;;;;;;;;;17.35;63.21;102477.88;7365798;19;19918;-62
2022/01/19 11:46:03;;;;;;;;;;;;;;;17.56;62.84;102462.44;7259094;19;2004641;-63
2022/01/19 11:48:31;;;;;;;;;;;;;;;17.69;62.49;102466.53;7360943;19;19966;-64
2022/01/19 11:51:16;;;;;;;;;;;;;;;17.81;62.02;102466.25;7359915;19;19927;-63
2022/01/19 11:54:21;;;;;;;;;;;;;;;17.94;61.86;102474.75;7364215;19;19940;-63
2022/01/19 11:56:58;;;;;;;;;;;;;;;17.93;60.95;102474.78;7266764;19;2004448;-63
2022/01/19 11:59:31;;;;;;;;;;;;;;;17.82;61.22;102475.06;7361821;19;19918;-63
2022/01/19 12:02:15;;;;;;;;;;;;;;;17.67;60.08;102468.34;7366036;19;19923;-63
2022/01/19 12:04:40;;;;;;;;;;;;;;;17.44;59.54;102471.53;7374946;19;19978;-63
2022/01/19 12:07:25;;;;;;;;;;;;;;;17.25;59.97;102480.78;7355190;19;19915;-63
2022/01/19 12:09:54;;;;;;;;;;;;;;;17.01;59.99;102490.09;7365374;19;20466;-63
2022/01/19 12:12:21;;;;;;;;;;;;;;;16.79;59.92;102498.44;7354012;19;19975;-63
2022/01/19 12:14:51;;;;;;;;;;;;;;;16.57;59.75;102486.53;7366313;19;19947;-63
2022/01/19 12:17:26;;;;;;;;;;;;;;;16.33;59.85;102487.88;7363050;19;19925;-62
2022/01/19 12:19:52;;;;;;;;;;;;;;;16.06;59.65;102490.06;7356000;19;20360;-63
2022/01/19 12:22:20;;;;;;;;;;;;;;;15.82;60.02;102486.09;7356818;19;19954;-63
2022/01/19 12:24:56;;;;;;;;;;;;;;;15.64;60.71;102491.63;7360306;19;20543;-63
2022/01/19 12:27:27;;;;;;;;;;;;;;;15.48;60.33;102500.63;7350756;19;19919;-63
2022/01/19 12:29:53;;;;;;;;;;;;;;;15.31;60.37;102499.13;7364796;19;19952;-63
2022/01/19 12:32:19;;;;;;;;;;;;;;;15.20;60.84;102493.09;7361270;19;19918;-63
2022/01/19 12:34:49;;;;;;;;;;;;;;;15.16;61.73;102483.53;7364445;19;19932;-62
2022/01/19 12:37:27;;;;;;;;;;;;;;;15.20;61.47;102484.34;7357306;19;19925;-63
2022/01/19 12:39:52;;;;;;;;;;;;;;;15.21;61.30;102479.06;7361732;19;19919;-63
2022/01/19 12:42:38;;;;;;;;;;;;;;;15.18;61.19;102476.47;7356947;19;19933;-62
2022/01/19 12:45:13;;;;;;;;;;;;;;;15.15;60.59;102476.50;7358689;19;20358;-61
2022/01/19 12:47:43;;;;;;;;;;;;;;;15.23;61.44;102485.19;7354784;19;19918;-63
2022/01/19 12:50:08;;;;;;;;;;;;;;;15.43;61.99;102491.94;7371684;19;19928;-63
2022/01/19 12:52:39;;;;;;;;;;;;;;;15.66;61.83;102486.34;7367427;19;20332;-63
2022/01/19 12:55:12;;;;;;;;;;;;;;;15.97;62.32;102492.03;7366959;19;19934;-63
2022/01/19 12:57:40;;;;;;;;;;;;;;;16.30;62.17;102490.56;4547085;19;10001373;-63
2022/01/19 13:00:08;;;;;;;;;;;;;;;16.63;62.35;102486.44;4011815;19;10002087;-63
2022/01/19 13:02:33;;;;;;;;;;;;;;;16.93;61.71;102484.09;7368567;19;19986;-63
2022/01/19 13:05:09;;;;;;;;;;;;;;;17.07;60.50;102479.38;7367867;19;20283;-63
2022/01/19 13:07:39;;;;;;;;;;;;;;;17.08;59.21;102483.75;7365097;19;20551;-63
2022/01/19 13:12:41;;;;;;;;;;;;;;;16.85;58.53;102487.75;7367391;19;19932;-62
2022/01/19 13:15:07;;;;;;;;;;;;;;;16.82;59.22;102487.81;7368200;19;19929;-62
2022/01/19 13:17:42;;;;;;;;;;;;;;;16.90;59.99;102478.88;7361143;19;19918;-63
2022/01/19 13:20:09;;;;;;;;;;;;;;;17.07;60.23;102471.47;7367408;19;19915;-63
2022/01/19 13:22:42;;;;;;;;;;;;;;;17.21;59.60;102474.69;7361576;19;19964;-63
2022/01/19 13:25:13;;;;;;;;;;;;;;;17.29;59.08;102478.03;7364274;19;19936;-63
2022/01/19 13:27:41;;;;;;;;;;;;;;;17.25;58.43;102484.28;7366677;19;20260;-63
2022/01/19 13:30:10;;;;;;;;;;;;;;;17.16;57.51;102488.88;7367041;19;19926;-63
2022/01/19 13:32:38;;;;;;;;;;;;;;;17.04;58.01;102504.09;7366381;19;21196;-63
2022/01/19 13:35:04;;;;;;;;;;;;;;;16.88;57.63;102493.88;7364868;19;19934;-63
2022/01/19 13:37:42;;;;;;;;;;;;;;;16.71;57.71;102488.91;7368925;19;20004;-63
2022/01/19 13:40:11;;;;;;;;;;;;;;;16.48;57.00;102495.50;7370525;19;20006;-63
2022/01/19 13:42:41;;;;;;;;;;;;;;;16.26;57.29;102500.28;7373604;19;19919;-63
2022/01/19 13:45:36;;;;;;;;;;;;;;;16.07;57.53;102497.09;7364619;19;19993;-63
2022/01/19 13:48:08;;;;;;;;;;;;;;;15.87;57.55;102493.06;7270545;19;2004359;-63
2022/01/19 13:50:35;;;;;;;;;;;;;;;15.70;57.59;102504.72;7365993;19;19911;-62
2022/01/19 13:53:00;;;;;;;;;;;;;;;15.56;57.75;102496.09;7363641;19;20348;-62
2022/01/19 13:55:26;;;;;;;;;;;;;;;15.44;57.21;102493.66;7353822;19;19922;-63
2022/01/19 13:58:02;;;;;;;;;;;;;;;15.35;57.77;102496.41;7346804;19;19921;-63
2022/01/19 14:00:27;;;;;;;;;;;;;;;15.24;58.20;102500.06;7361248;19;19915;-62
2022/01/19 14:02:59;;;;;;;;;;;;;;;15.15;57.66;102513.34;7362713;19;19919;-63
2022/01/19 14:05:35;;;;;;;;;;;;;;;15.07;58.34;102520.47;7350069;19;19915;-62
2022/01/19 14:08:00;;;;;;;;;;;;;;;15.03;58.11;102524.03;7366744;19;20004;-63
2022/01/19 14:10:26;;;;;;;;;;;;;;;15.03;58.64;102527.53;7366939;19;19915;-63
2022/01/19 14:12:51;;;;;;;;;;;;;;;15.06;58.59;102531.91;7361701;19;20817;-62
2022/01/19 14:15:24;;;;;;;;;;;;;;;15.11;58.80;102530.09;7364044;19;19919;-63
2022/01/19 14:17:50;;;;;;;;;;;;;;;15.17;58.62;102519.47;7364403;19;19927;-62
2022/01/19 14:20:16;;;;;;;;;;;;;;;15.25;58.99;102514.97;7368917;19;19918;-62
2022/01/19 14:22:42;;;;;;;;;;;;;;;15.40;59.23;102510.38;7367891;19;19952;-62